createdAt,value
2017-12-03T00:02:17.261Z,1.70
2017-12-03T00:04:44.682Z,1.80
2017-12-03T00:07:12.114Z,1.80
2017-12-03T00:09:39.645Z,1.80
2017-12-03T00:12:07.085Z,1.70
2017-12-03T00:14:34.509Z,1.80
2017-12-03T00:17:02.709Z,1.80
2017-12-03T00:19:30.916Z,1.80
2017-12-03T00:21:58.372Z,1.80
2017-12-03T00:24:25.838Z,1.80
2017-12-03T00:26:53.301Z,1.80
2017-12-03T00:29:20.750Z,1.80
2017-12-03T00:31:48.205Z,1.80
2017-12-03T00:34:15.621Z,1.90
2017-12-03T00:36:43.137Z,1.90
2017-12-03T00:39:10.573Z,1.90
2017-12-03T00:41:38.069Z,1.90
2017-12-03T00:44:05.489Z,1.90
2017-12-03T00:46:32.924Z,1.90
2017-12-03T00:49:00.356Z,1.90
2017-12-03T00:51:27.801Z,1.90
2017-12-03T00:53:55.229Z,1.90
2017-12-03T00:56:23.415Z,1.90
2017-12-03T00:58:50.854Z,1.90
2017-12-03T01:01:19.086Z,2.00
2017-12-03T01:03:46.551Z,2.00
2017-12-03T01:06:14.001Z,1.90
2017-12-03T01:08:41.429Z,1.90
2017-12-03T01:11:09.674Z,1.90
2017-12-03T01:13:37.202Z,1.90
2017-12-03T01:16:04.671Z,1.90
2017-12-03T01:18:32.111Z,1.90
2017-12-03T01:20:59.597Z,2.00
2017-12-03T01:23:27.053Z,2.00
2017-12-03T01:25:54.490Z,2.00
2017-12-03T01:28:21.977Z,2.10
2017-12-03T01:30:49.433Z,2.10
2017-12-03T01:33:16.866Z,2.00
2017-12-03T01:35:44.449Z,2.00
2017-12-03T01:38:11.926Z,2.00
2017-12-03T01:40:39.350Z,2.10
2017-12-03T01:43:07.542Z,2.10
2017-12-03T01:45:35.026Z,2.00
2017-12-03T01:48:02.564Z,2.10
2017-12-03T01:50:30.041Z,2.10
2017-12-03T01:52:57.471Z,2.10
2017-12-03T01:55:25.658Z,2.00
2017-12-03T01:57:53.154Z,2.10
2017-12-03T02:00:20.583Z,2.00
2017-12-03T02:02:48.777Z,2.00
2017-12-03T02:05:16.206Z,2.00
2017-12-03T02:07:44.413Z,2.00
2017-12-03T02:10:11.890Z,2.00
2017-12-03T02:12:39.321Z,2.00
2017-12-03T02:15:06.742Z,2.10
2017-12-03T02:17:34.276Z,2.10
2017-12-03T02:20:01.700Z,2.00
2017-12-03T02:22:29.213Z,2.00
2017-12-03T02:24:56.713Z,2.00
2017-12-03T02:27:24.105Z,2.00
2017-12-03T02:29:51.581Z,2.00
2017-12-03T02:32:19.069Z,2.00
2017-12-03T02:34:46.525Z,2.00
2017-12-03T02:37:13.957Z,2.00
2017-12-03T02:39:41.385Z,2.00
2017-12-03T02:42:09.575Z,2.10
2017-12-03T02:44:37.006Z,2.10
2017-12-03T02:47:04.425Z,2.10
2017-12-03T02:49:31.853Z,2.10
2017-12-03T02:51:59.277Z,2.20
2017-12-03T02:54:26.806Z,2.20
2017-12-03T02:56:54.229Z,2.10
2017-12-03T02:59:22.413Z,2.10
2017-12-03T03:01:49.830Z,2.10
2017-12-03T03:04:17.370Z,2.10
2017-12-03T03:06:44.826Z,2.10
2017-12-03T03:09:12.297Z,2.10
2017-12-03T03:11:39.734Z,2.20
2017-12-03T03:14:07.177Z,2.10
2017-12-03T03:16:35.375Z,2.10
2017-12-03T03:19:02.849Z,2.10
2017-12-03T03:21:30.314Z,2.10
2017-12-03T03:23:57.741Z,2.10
2017-12-03T03:26:25.229Z,2.10
2017-12-03T03:28:52.663Z,2.10
2017-12-03T03:31:20.112Z,2.10
2017-12-03T03:33:48.329Z,2.10
2017-12-03T03:36:15.747Z,2.10
2017-12-03T03:38:43.969Z,2.10
2017-12-03T03:41:11.398Z,2.10
2017-12-03T03:43:39.588Z,2.10
2017-12-03T03:46:07.010Z,2.00
2017-12-03T03:48:34.503Z,2.00
2017-12-03T03:51:01.993Z,2.00
2017-12-03T03:53:29.417Z,2.00
2017-12-03T03:55:57.609Z,1.90
2017-12-03T03:58:25.093Z,1.90
2017-12-03T04:00:52.553Z,1.90
2017-12-03T04:03:19.977Z,1.90
2017-12-03T04:05:48.164Z,2.00
2017-12-03T04:08:16.379Z,2.00
2017-12-03T04:10:43.794Z,2.00
2017-12-03T04:13:11.986Z,1.90
2017-12-03T04:15:39.471Z,1.90
2017-12-03T04:18:06.889Z,1.90
2017-12-03T04:20:35.165Z,1.90
2017-12-03T04:23:03.394Z,1.90
2017-12-03T04:25:30.825Z,1.90
2017-12-03T04:27:58.249Z,1.90
2017-12-03T04:30:25.669Z,1.90
2017-12-03T04:32:53.086Z,1.90
2017-12-03T04:35:21.278Z,1.90
2017-12-03T04:37:49.470Z,1.90
2017-12-03T04:40:16.949Z,1.90
2017-12-03T04:42:44.410Z,1.90
2017-12-03T04:45:11.839Z,2.00
2017-12-03T04:47:40.030Z,2.00
2017-12-03T04:50:07.454Z,2.00
2017-12-03T04:52:34.873Z,1.90
2017-12-03T04:55:02.322Z,1.90
2017-12-03T04:57:29.725Z,1.90
2017-12-03T04:59:57.154Z,1.80
2017-12-03T05:02:24.577Z,1.80
2017-12-03T05:04:52.765Z,1.80
2017-12-03T05:07:20.253Z,1.70
2017-12-03T05:09:47.681Z,1.80
2017-12-03T05:12:15.873Z,1.70
2017-12-03T05:14:43.358Z,1.70
2017-12-03T05:17:10.840Z,1.70
2017-12-03T05:19:38.267Z,1.70
2017-12-03T05:22:05.690Z,1.70
2017-12-03T05:24:33.908Z,1.70
2017-12-03T05:27:01.395Z,1.70
2017-12-03T05:29:28.838Z,1.70
2017-12-03T05:31:56.253Z,1.70
2017-12-03T05:34:24.480Z,1.70
2017-12-03T05:36:51.928Z,1.70
2017-12-03T05:39:19.404Z,1.80
2017-12-03T05:41:46.821Z,1.70
2017-12-03T05:44:15.023Z,1.70
2017-12-03T05:46:42.503Z,1.70
2017-12-03T05:49:09.968Z,1.70
2017-12-03T05:51:37.417Z,1.70
2017-12-03T05:54:04.899Z,1.60
2017-12-03T05:56:33.057Z,1.70
2017-12-03T05:59:00.526Z,1.70
2017-12-03T06:01:27.946Z,1.70
2017-12-03T06:03:56.169Z,1.70
2017-12-03T06:06:23.625Z,1.70
2017-12-03T06:08:51.046Z,1.70
2017-12-03T06:11:19.257Z,1.60
2017-12-03T06:13:46.721Z,1.60
2017-12-03T06:16:14.209Z,1.60
2017-12-03T06:18:41.625Z,1.60
2017-12-03T06:21:09.049Z,1.60
2017-12-03T06:23:37.229Z,1.60
2017-12-03T06:26:04.733Z,1.70
2017-12-03T06:28:32.133Z,1.70
2017-12-03T06:30:59.570Z,1.70
2017-12-03T06:33:26.981Z,1.70
2017-12-03T06:35:55.178Z,1.70
2017-12-03T06:38:22.593Z,1.70
2017-12-03T06:40:50.026Z,1.70
2017-12-03T06:43:17.489Z,1.70
2017-12-03T06:45:45.495Z,1.60
2017-12-03T06:48:12.939Z,1.60
2017-12-03T06:50:40.396Z,1.60
2017-12-03T06:53:07.807Z,1.60
2017-12-03T06:55:36.035Z,1.50
2017-12-03T06:58:03.449Z,1.50
2017-12-03T07:00:30.879Z,1.60
2017-12-03T07:02:58.406Z,1.60
2017-12-03T07:05:25.832Z,1.60
2017-12-03T07:07:54.021Z,1.60
2017-12-03T07:10:21.505Z,1.60
2017-12-03T07:12:48.925Z,1.60
2017-12-03T07:15:17.153Z,1.60
2017-12-03T07:17:44.697Z,1.60
2017-12-03T07:20:12.105Z,1.60
2017-12-03T07:22:39.529Z,1.70
2017-12-03T07:25:06.985Z,1.70
2017-12-03T07:27:34.404Z,1.70
2017-12-03T07:30:02.593Z,1.70
2017-12-03T07:32:30.802Z,1.70
2017-12-03T07:34:58.222Z,1.70
2017-12-03T07:37:26.430Z,1.70
2017-12-03T07:39:53.849Z,1.70
2017-12-03T07:42:21.277Z,1.70
2017-12-03T07:44:48.702Z,1.80
2017-12-03T07:47:16.131Z,1.80
2017-12-03T07:49:43.565Z,1.70
2017-12-03T07:52:10.998Z,1.70
2017-12-03T07:54:38.417Z,1.70
2017-12-03T07:57:06.619Z,1.70
2017-12-03T07:59:34.046Z,1.70
2017-12-03T08:02:02.293Z,1.70
2017-12-03T08:04:29.710Z,1.70
2017-12-03T08:06:57.924Z,1.70
2017-12-03T08:09:25.326Z,1.70
2017-12-03T08:11:52.766Z,1.70
2017-12-03T08:14:20.185Z,1.70
2017-12-03T08:16:47.666Z,1.70
2017-12-03T08:19:15.081Z,1.70
2017-12-03T08:21:43.277Z,1.70
2017-12-03T08:24:10.701Z,1.70
2017-12-03T08:26:38.131Z,1.70
2017-12-03T08:29:05.561Z,1.70
2017-12-03T08:31:32.998Z,1.70
2017-12-03T08:34:00.414Z,1.70
2017-12-03T08:36:27.842Z,1.70
2017-12-03T08:38:55.261Z,1.80
2017-12-03T08:41:22.695Z,1.80
2017-12-03T08:43:50.123Z,1.80
2017-12-03T08:46:18.314Z,1.90
2017-12-03T08:48:45.789Z,1.90
2017-12-03T08:51:13.250Z,1.90
2017-12-03T08:53:40.669Z,1.80
2017-12-03T08:56:08.863Z,1.90
2017-12-03T08:58:36.282Z,1.90
2017-12-03T09:01:03.717Z,1.90
2017-12-03T09:03:31.135Z,1.90
2017-12-03T09:05:59.322Z,1.90
2017-12-03T09:08:26.845Z,1.90
2017-12-03T09:10:54.247Z,1.90
2017-12-03T09:13:21.673Z,1.90
2017-12-03T09:15:49.193Z,1.90
2017-12-03T09:18:16.658Z,1.90
2017-12-03T09:20:44.083Z,1.90
2017-12-03T09:23:12.300Z,2.00
2017-12-03T09:25:39.716Z,1.90
2017-12-03T09:28:07.905Z,2.00
2017-12-03T09:30:35.333Z,2.00
2017-12-03T09:33:03.521Z,2.10
2017-12-03T09:35:30.992Z,2.10
2017-12-03T09:37:59.177Z,2.00
2017-12-03T09:40:27.361Z,2.00
2017-12-03T09:42:54.785Z,2.00
2017-12-03T09:45:22.201Z,2.00
2017-12-03T09:47:49.637Z,2.00
2017-12-03T09:50:17.819Z,2.00
2017-12-03T09:52:45.402Z,1.90
2017-12-03T09:55:12.806Z,1.90
2017-12-03T09:57:40.341Z,1.90
2017-12-03T10:00:07.914Z,2.00
2017-12-03T10:02:35.338Z,1.90
2017-12-03T10:05:02.790Z,1.90
2017-12-03T10:07:30.223Z,1.90
2017-12-03T10:09:57.764Z,2.00
2017-12-03T10:12:25.179Z,2.00
2017-12-03T10:14:52.610Z,2.00
2017-12-03T10:17:20.038Z,2.00
2017-12-03T10:19:47.475Z,1.90
2017-12-03T10:22:14.989Z,2.00
2017-12-03T10:24:42.410Z,2.00
2017-12-03T10:27:09.836Z,1.90
2017-12-03T10:29:38.021Z,2.00
2017-12-03T10:32:05.516Z,2.00
2017-12-03T10:34:32.969Z,2.00
2017-12-03T10:37:00.445Z,2.00
2017-12-03T10:39:27.862Z,1.90
2017-12-03T10:41:56.069Z,2.00
2017-12-03T10:44:23.529Z,2.00
2017-12-03T10:46:51.017Z,2.00
2017-12-03T10:49:18.462Z,1.90
2017-12-03T10:51:45.877Z,2.00
2017-12-03T10:54:14.123Z,2.00
2017-12-03T10:56:41.561Z,2.00
2017-12-03T10:59:09.025Z,2.00
2017-12-03T11:01:36.442Z,2.00
2017-12-03T11:04:04.657Z,2.00
2017-12-03T11:06:32.097Z,2.00
2017-12-03T11:08:59.579Z,2.00
2017-12-03T11:11:27.732Z,2.00
2017-12-03T11:13:55.925Z,2.00
2017-12-03T11:16:23.348Z,2.00
2017-12-03T11:18:51.546Z,2.10
2017-12-03T11:21:19.034Z,2.10
2017-12-03T11:23:46.485Z,2.10
2017-12-03T11:26:13.959Z,2.20
2017-12-03T11:28:41.421Z,2.10
2017-12-03T11:31:08.837Z,2.10
2017-12-03T11:33:37.038Z,2.30
2017-12-03T11:36:04.513Z,2.30
2017-12-03T11:38:31.986Z,2.30
2017-12-03T11:40:59.532Z,2.30
2017-12-03T11:43:27.096Z,2.30
2017-12-03T11:45:54.497Z,2.30
2017-12-03T11:48:21.931Z,2.30
2017-12-03T11:50:49.401Z,2.30
2017-12-03T11:53:16.885Z,2.30
2017-12-03T11:55:44.313Z,2.30
2017-12-03T11:58:11.766Z,2.30
2017-12-03T12:00:39.217Z,2.30
2017-12-03T12:03:06.642Z,2.30
2017-12-03T12:05:34.833Z,2.40
2017-12-03T12:08:03.031Z,2.40
2017-12-03T12:10:30.483Z,2.40
2017-12-03T12:12:58.670Z,2.50
2017-12-03T12:15:26.089Z,2.40
2017-12-03T12:17:53.518Z,2.40
2017-12-03T12:20:20.969Z,2.50
2017-12-03T12:22:48.433Z,2.50
2017-12-03T12:25:15.862Z,2.50
2017-12-03T12:27:44.050Z,2.60
2017-12-03T12:30:11.549Z,2.60
2017-12-03T12:32:38.951Z,2.60
2017-12-03T12:35:07.164Z,2.60
2017-12-03T12:37:34.578Z,2.60
2017-12-03T12:40:02.013Z,2.60
2017-12-03T12:42:29.469Z,2.60
2017-12-03T12:44:56.906Z,2.60
2017-12-03T12:47:24.329Z,2.50
2017-12-03T12:49:52.554Z,2.60
2017-12-03T12:52:20.022Z,2.60
2017-12-03T12:54:47.472Z,2.60
2017-12-03T12:57:14.891Z,2.60
2017-12-03T12:59:43.098Z,2.60
2017-12-03T13:02:10.583Z,2.60
2017-12-03T13:04:38.002Z,2.60
2017-12-03T13:07:06.185Z,2.70
2017-12-03T13:09:33.712Z,2.60
2017-12-03T13:12:01.121Z,2.70
2017-12-03T13:14:28.568Z,2.70
2017-12-03T13:16:56.017Z,2.70
2017-12-03T13:19:24.209Z,2.70
2017-12-03T13:21:51.717Z,2.70
2017-12-03T13:24:19.170Z,2.70
2017-12-03T13:26:46.613Z,2.80
2017-12-03T13:29:14.117Z,2.70
2017-12-03T13:31:41.534Z,2.70
2017-12-03T13:34:08.967Z,2.70
2017-12-03T13:36:37.192Z,2.70
2017-12-03T13:39:04.618Z,2.70
2017-12-03T13:41:32.041Z,2.60
2017-12-03T13:43:59.468Z,2.70
2017-12-03T13:46:26.915Z,2.70
2017-12-03T13:48:54.333Z,2.70
2017-12-03T13:51:21.853Z,2.70
2017-12-03T13:53:49.277Z,2.70
2017-12-03T13:56:17.476Z,2.70
2017-12-03T13:58:44.897Z,2.70
2017-12-03T14:01:12.313Z,2.70
2017-12-03T14:03:39.749Z,2.70
2017-12-03T14:06:07.943Z,2.70
2017-12-03T14:08:35.391Z,2.70
2017-12-03T14:11:02.809Z,2.70
2017-12-03T14:13:30.230Z,2.70
2017-12-03T14:15:57.724Z,2.70
2017-12-03T14:18:25.138Z,2.80
2017-12-03T14:20:52.586Z,2.80
2017-12-03T14:23:20.011Z,2.80
2017-12-03T14:25:47.438Z,2.80
2017-12-03T14:28:14.854Z,2.80
2017-12-03T14:30:43.046Z,2.70
2017-12-03T14:33:10.566Z,2.70
2017-12-03T14:35:38.101Z,2.70
2017-12-03T14:38:05.525Z,2.80
2017-12-03T14:40:33.747Z,2.80
2017-12-03T14:43:01.163Z,2.80
2017-12-03T14:45:29.355Z,2.80
2017-12-03T14:47:56.773Z,2.80
2017-12-03T14:50:24.234Z,2.80
2017-12-03T14:52:51.666Z,2.80
2017-12-03T14:55:19.108Z,2.80
2017-12-03T14:57:46.577Z,2.80
2017-12-03T15:00:14.048Z,2.80
2017-12-03T15:02:41.492Z,2.80
2017-12-03T15:05:08.906Z,2.80
2017-12-03T15:07:36.328Z,2.80
2017-12-03T15:10:03.781Z,2.80
2017-12-03T15:12:31.209Z,2.80
2017-12-03T15:14:59.400Z,2.80
2017-12-03T15:17:26.825Z,2.80
2017-12-03T15:19:54.258Z,2.80
2017-12-03T15:22:22.633Z,2.80
2017-12-03T15:24:50.066Z,2.80
2017-12-03T15:27:17.483Z,2.80
2017-12-03T15:29:44.918Z,2.80
2017-12-03T15:32:12.355Z,2.80
2017-12-03T15:34:40.566Z,2.80
2017-12-03T15:37:08.672Z,2.80
2017-12-03T15:39:36.092Z,2.80
2017-12-03T15:42:03.545Z,2.80
2017-12-03T15:44:30.982Z,2.80
2017-12-03T15:46:58.397Z,2.80
2017-12-03T15:49:25.919Z,2.80
2017-12-03T15:51:53.321Z,2.90
2017-12-03T15:54:20.766Z,2.90
2017-12-03T15:56:48.193Z,2.90
2017-12-03T15:59:15.623Z,2.90
2017-12-03T16:01:43.826Z,2.90
2017-12-03T16:04:11.262Z,2.90
2017-12-03T16:06:39.485Z,3.00
2017-12-03T16:09:06.939Z,3.00
2017-12-03T16:11:35.129Z,3.00
2017-12-03T16:14:02.547Z,2.90
2017-12-03T16:16:30.738Z,3.00
2017-12-03T16:18:58.229Z,2.90
2017-12-03T16:21:25.692Z,3.00
2017-12-03T16:23:53.105Z,3.00
2017-12-03T16:26:21.421Z,3.00
2017-12-03T16:28:48.901Z,3.00
2017-12-03T16:31:16.329Z,3.00
2017-12-03T16:33:43.753Z,3.00
2017-12-03T16:36:11.173Z,3.10
2017-12-03T16:38:38.642Z,3.10
2017-12-03T16:41:06.069Z,3.10
2017-12-03T16:43:33.490Z,3.10
2017-12-03T16:46:00.910Z,3.10
2017-12-03T16:48:28.353Z,3.10
2017-12-03T16:50:55.842Z,3.10
2017-12-03T16:53:23.269Z,3.10
2017-12-03T16:55:51.477Z,3.10
2017-12-03T16:58:18.911Z,3.10
2017-12-03T17:00:47.209Z,3.10
2017-12-03T17:03:14.681Z,3.10
2017-12-03T17:05:42.105Z,3.10
2017-12-03T17:08:10.306Z,3.20
2017-12-03T17:10:37.771Z,3.20
2017-12-03T17:13:05.234Z,3.20
2017-12-03T17:15:32.714Z,3.20
2017-12-03T17:18:00.170Z,3.20
2017-12-03T17:20:27.626Z,3.20
2017-12-03T17:22:55.045Z,3.20
2017-12-03T17:25:23.240Z,3.20
2017-12-03T17:27:50.653Z,3.20
2017-12-03T17:30:18.102Z,3.20
2017-12-03T17:32:45.524Z,3.20
2017-12-03T17:35:13.013Z,3.30
2017-12-03T17:37:40.436Z,3.30
2017-12-03T17:40:08.637Z,3.30
2017-12-03T17:42:36.113Z,3.30
2017-12-03T17:45:03.538Z,3.30
2017-12-03T17:47:31.745Z,3.30
2017-12-03T17:49:59.262Z,3.30
2017-12-03T17:52:26.677Z,3.40
2017-12-03T17:54:54.102Z,3.40
2017-12-03T17:57:22.329Z,3.40
2017-12-03T17:59:49.729Z,3.30
2017-12-03T18:02:17.921Z,3.40
2017-12-03T18:04:45.342Z,3.40
2017-12-03T18:07:12.773Z,3.40
2017-12-03T18:09:40.193Z,3.40
2017-12-03T18:12:08.398Z,3.40
2017-12-03T18:14:35.806Z,3.40
2017-12-03T18:17:03.229Z,3.50
2017-12-03T18:19:30.649Z,3.50
2017-12-03T18:21:58.841Z,3.40
2017-12-03T18:24:26.265Z,3.40
2017-12-03T18:26:53.703Z,3.40
2017-12-03T18:29:21.154Z,3.40
2017-12-03T18:31:48.586Z,3.50
2017-12-03T18:34:16.785Z,3.50
2017-12-03T18:36:44.217Z,3.50
2017-12-03T18:39:12.426Z,3.50
2017-12-03T18:41:39.911Z,3.50
2017-12-03T18:44:07.351Z,3.50
2017-12-03T18:46:34.761Z,3.50
2017-12-03T18:49:02.182Z,3.50
2017-12-03T18:51:29.623Z,3.60
2017-12-03T18:53:57.123Z,3.60
2017-12-03T18:56:24.646Z,3.60
2017-12-03T18:58:52.042Z,3.60
2017-12-03T19:01:19.489Z,3.60
2017-12-03T19:03:46.909Z,3.60
2017-12-03T19:06:14.337Z,3.60
2017-12-03T19:08:41.785Z,3.60
2017-12-03T19:11:09.225Z,3.60
2017-12-03T19:13:36.630Z,3.60
2017-12-03T19:16:04.849Z,3.60
2017-12-03T19:18:32.258Z,3.60
2017-12-03T19:20:59.784Z,3.70
2017-12-03T19:23:27.232Z,3.70
2017-12-03T19:25:54.717Z,3.70
2017-12-03T19:28:22.259Z,3.70
2017-12-03T19:30:49.754Z,3.70
2017-12-03T19:33:17.209Z,3.70
2017-12-03T19:35:44.642Z,3.70
2017-12-03T19:38:12.117Z,3.70
2017-12-03T19:40:39.546Z,3.70
2017-12-03T19:43:07.769Z,3.80
2017-12-03T19:45:35.185Z,3.70
2017-12-03T19:48:02.646Z,3.80
2017-12-03T19:50:30.067Z,3.80
2017-12-03T19:52:57.623Z,3.80
2017-12-03T19:55:25.064Z,3.80
2017-12-03T19:57:52.521Z,3.80
2017-12-03T20:00:20.005Z,3.80
2017-12-03T20:02:47.413Z,3.80
2017-12-03T20:05:14.842Z,3.80
2017-12-03T20:07:42.277Z,3.80
2017-12-03T20:10:09.734Z,3.80
2017-12-03T20:12:37.189Z,3.80
2017-12-03T20:15:04.613Z,3.80
2017-12-03T20:17:32.923Z,3.90
2017-12-03T20:20:00.425Z,3.90
2017-12-03T20:22:27.976Z,3.90
2017-12-03T20:24:55.404Z,3.90
2017-12-03T20:27:22.817Z,3.90
2017-12-03T20:29:51.005Z,3.90
2017-12-03T20:32:19.205Z,3.90
2017-12-03T20:34:46.630Z,3.90
2017-12-03T20:37:14.051Z,3.90
2017-12-03T20:39:41.468Z,3.90
2017-12-03T20:42:09.698Z,3.90
2017-12-03T20:44:37.105Z,3.90
2017-12-03T20:47:05.297Z,3.90
2017-12-03T20:49:32.779Z,3.90
2017-12-03T20:52:00.205Z,3.90
2017-12-03T20:54:28.398Z,3.90
2017-12-03T20:56:56.607Z,4.00
2017-12-03T20:59:24.040Z,4.00
2017-12-03T21:01:52.245Z,4.00
2017-12-03T21:04:19.721Z,4.00
2017-12-03T21:06:47.171Z,4.00
2017-12-03T21:09:14.630Z,4.00
2017-12-03T21:11:42.057Z,4.00
2017-12-03T21:14:10.363Z,4.00
2017-12-03T21:16:38.536Z,4.00
2017-12-03T21:19:05.961Z,4.00
2017-12-03T21:21:34.196Z,4.00
2017-12-03T21:24:01.654Z,4.00
2017-12-03T21:26:29.085Z,4.00
2017-12-03T21:28:56.574Z,4.00
2017-12-03T21:31:24.040Z,4.00
2017-12-03T21:33:51.460Z,4.00
2017-12-03T21:36:19.661Z,4.10
2017-12-03T21:38:47.082Z,4.10
2017-12-03T21:41:14.593Z,4.10
2017-12-03T21:43:42.033Z,4.10
2017-12-03T21:46:10.218Z,4.20
2017-12-03T21:48:37.701Z,4.10
2017-12-03T21:51:05.161Z,4.20
2017-12-03T21:53:32.710Z,4.10
2017-12-03T21:56:00.118Z,4.20
2017-12-03T21:58:27.651Z,4.20
2017-12-03T22:00:55.058Z,4.20
2017-12-03T22:03:23.258Z,4.20
2017-12-03T22:05:50.677Z,4.20
2017-12-03T22:08:18.209Z,4.20
2017-12-03T22:10:45.629Z,4.20
2017-12-03T22:13:13.936Z,4.20
2017-12-03T22:15:41.413Z,4.20
2017-12-03T22:18:08.846Z,4.20
2017-12-03T22:20:36.265Z,4.20
2017-12-03T22:23:03.781Z,4.20
2017-12-03T22:25:31.969Z,4.20
2017-12-03T22:27:59.429Z,4.20
2017-12-03T22:30:26.894Z,4.30
2017-12-03T22:32:54.344Z,4.30
2017-12-03T22:35:21.765Z,4.30
2017-12-03T22:37:49.189Z,4.30
2017-12-03T22:40:16.610Z,4.30
2017-12-03T22:42:44.106Z,4.30
2017-12-03T22:45:11.521Z,4.40
2017-12-03T22:47:39.733Z,4.30
2017-12-03T22:50:07.201Z,4.30
2017-12-03T22:52:34.661Z,4.30
2017-12-03T22:55:02.119Z,4.30
2017-12-03T22:57:29.545Z,4.30
2017-12-03T22:59:57.762Z,4.40
2017-12-03T23:02:25.201Z,4.40
2017-12-03T23:04:52.622Z,4.40
2017-12-03T23:07:20.033Z,4.40
2017-12-03T23:09:47.505Z,4.40
2017-12-03T23:12:14.934Z,4.40
2017-12-03T23:14:42.365Z,4.40
2017-12-03T23:17:10.557Z,4.40
2017-12-03T23:19:38.754Z,4.40
2017-12-03T23:22:06.245Z,4.40
2017-12-03T23:24:33.700Z,4.40
2017-12-03T23:27:01.118Z,4.40
2017-12-03T23:29:29.305Z,4.50
2017-12-03T23:31:57.495Z,4.50
2017-12-03T23:34:24.922Z,4.50
2017-12-03T23:36:52.341Z,4.50
2017-12-03T23:39:19.773Z,4.50
2017-12-03T23:41:47.209Z,4.50
2017-12-03T23:44:14.726Z,4.50
2017-12-03T23:46:42.146Z,4.50
2017-12-03T23:49:10.346Z,4.50
2017-12-03T23:51:37.826Z,4.50
2017-12-03T23:54:05.292Z,4.50
2017-12-03T23:56:32.748Z,4.50
2017-12-03T23:59:00.179Z,4.50
